sensor_id;sensor_type;location;lat;lon;timestamp;P1;durP1;ratioP1;P2;durP2;ratioP2
38940;SDS011;43236;47.208;7.518;2023-12-20T00:02:44;14.98;;;9.90;;
38940;SDS011;43236;47.208;7.518;2023-12-20T00:05:32;19.20;;;9.65;;
38940;SDS011;43236;47.208;7.518;2023-12-20T00:08:20;12.45;;;7.65;;
38940;SDS011;43236;47.208;7.518;2023-12-20T00:11:07;19.10;;;10.85;;
38940;SDS011;43236;47.208;7.518;2023-12-20T00:13:54;15.27;;;8.25;;
38940;SDS011;43236;47.208;7.518;2023-12-20T00:16:43;11.90;;;7.68;;
38940;SDS011;43236;47.208;7.518;2023-12-20T00:19:30;14.80;;;8.23;;
38940;SDS011;43236;47.208;7.518;2023-12-20T00:22:17;17.48;;;7.88;;
38940;SDS011;43236;47.208;7.518;2023-12-20T00:25:04;15.68;;;8.73;;
38940;SDS011;43236;47.208;7.518;2023-12-20T00:27:51;11.80;;;7.30;;
38940;SDS011;43236;47.208;7.518;2023-12-20T00:30:38;14.35;;;9.95;;
38940;SDS011;43236;47.208;7.518;2023-12-20T00:33:27;13.55;;;8.82;;
38940;SDS011;43236;47.208;7.518;2023-12-20T00:36:14;13.93;;;9.57;;
38940;SDS011;43236;47.208;7.518;2023-12-20T00:39:01;13.23;;;8.02;;
38940;SDS011;43236;47.208;7.518;2023-12-20T00:41:48;16.88;;;9.85;;
38940;SDS011;43236;47.208;7.518;2023-12-20T00:44:35;15.02;;;9.10;;
38940;SDS011;43236;47.208;7.518;2023-12-20T00:47:23;11.50;;;7.57;;
38940;SDS011;43236;47.208;7.518;2023-12-20T00:50:11;16.55;;;8.73;;
38940;SDS011;43236;47.208;7.518;2023-12-20T00:52:58;15.60;;;8.50;;
38940;SDS011;43236;47.208;7.518;2023-12-20T00:55:45;22.05;;;9.95;;
38940;SDS011;43236;47.208;7.518;2023-12-20T00:58:32;19.38;;;10.55;;
38940;SDS011;43236;47.208;7.518;2023-12-20T01:01:19;12.80;;;7.88;;
38940;SDS011;43236;47.208;7.518;2023-12-20T01:04:07;18.25;;;10.73;;
38940;SDS011;43236;47.208;7.518;2023-12-20T01:06:56;11.15;;;8.93;;
38940;SDS011;43236;47.208;7.518;2023-12-20T01:09:43;17.92;;;10.00;;
38940;SDS011;43236;47.208;7.518;2023-12-20T01:12:29;20.02;;;9.60;;
38940;SDS011;43236;47.208;7.518;2023-12-20T01:15:17;17.48;;;8.88;;
38940;SDS011;43236;47.208;7.518;2023-12-20T01:18:04;12.23;;;10.23;;
38940;SDS011;43236;47.208;7.518;2023-12-20T01:20:51;14.05;;;8.63;;
38940;SDS011;43236;47.208;7.518;2023-12-20T01:23:39;20.63;;;10.68;;
38940;SDS011;43236;47.208;7.518;2023-12-20T01:26:27;20.58;;;10.60;;
38940;SDS011;43236;47.208;7.518;2023-12-20T01:29:14;16.48;;;9.63;;
38940;SDS011;43236;47.208;7.518;2023-12-20T01:32:01;20.33;;;10.52;;
38940;SDS011;43236;47.208;7.518;2023-12-20T01:34:48;15.65;;;9.90;;
38940;SDS011;43236;47.208;7.518;2023-12-20T01:37:35;17.77;;;10.10;;
38940;SDS011;43236;47.208;7.518;2023-12-20T01:40:24;14.07;;;10.25;;
38940;SDS011;43236;47.208;7.518;2023-12-20T01:43:11;21.35;;;11.50;;
38940;SDS011;43236;47.208;7.518;2023-12-20T01:45:58;21.15;;;11.98;;
38940;SDS011;43236;47.208;7.518;2023-12-20T01:48:45;15.20;;;9.73;;
38940;SDS011;43236;47.208;7.518;2023-12-20T01:51:33;22.77;;;11.43;;
38940;SDS011;43236;47.208;7.518;2023-12-20T01:54:20;20.95;;;9.55;;
38940;SDS011;43236;47.208;7.518;2023-12-20T01:57:09;14.85;;;9.18;;
38940;SDS011;43236;47.208;7.518;2023-12-20T01:59:57;20.17;;;11.48;;
38940;SDS011;43236;47.208;7.518;2023-12-20T02:02:44;16.80;;;9.85;;
38940;SDS011;43236;47.208;7.518;2023-12-20T02:05:32;10.30;;;7.95;;
38940;SDS011;43236;47.208;7.518;2023-12-20T02:08:20;17.23;;;9.52;;
38940;SDS011;43236;47.208;7.518;2023-12-20T02:11:07;14.85;;;9.57;;
38940;SDS011;43236;47.208;7.518;2023-12-20T02:13:55;14.02;;;9.30;;
38940;SDS011;43236;47.208;7.518;2023-12-20T02:16:42;19.48;;;10.18;;
38940;SDS011;43236;47.208;7.518;2023-12-20T02:19:30;14.18;;;8.60;;
38940;SDS011;43236;47.208;7.518;2023-12-20T02:22:18;17.60;;;10.32;;
38940;SDS011;43236;47.208;7.518;2023-12-20T02:25:05;13.50;;;8.70;;
38940;SDS011;43236;47.208;7.518;2023-12-20T02:27:53;12.45;;;8.68;;
38940;SDS011;43236;47.208;7.518;2023-12-20T02:30:40;12.75;;;9.55;;
38940;SDS011;43236;47.208;7.518;2023-12-20T02:33:27;14.85;;;8.45;;
38940;SDS011;43236;47.208;7.518;2023-12-20T02:36:14;13.95;;;7.72;;
38940;SDS011;43236;47.208;7.518;2023-12-20T02:39:03;17.08;;;8.93;;
38940;SDS011;43236;47.208;7.518;2023-12-20T02:41:50;16.05;;;9.90;;
38940;SDS011;43236;47.208;7.518;2023-12-20T02:44:37;14.93;;;8.07;;
38940;SDS011;43236;47.208;7.518;2023-12-20T02:47:24;15.02;;;8.80;;
38940;SDS011;43236;47.208;7.518;2023-12-20T02:50:11;16.27;;;8.40;;
38940;SDS011;43236;47.208;7.518;2023-12-20T02:52:58;13.82;;;8.45;;
38940;SDS011;43236;47.208;7.518;2023-12-20T02:55:46;15.25;;;9.48;;
38940;SDS011;43236;47.208;7.518;2023-12-20T02:58:33;16.30;;;8.73;;
38940;SDS011;43236;47.208;7.518;2023-12-20T03:01:20;13.20;;;8.07;;
38940;SDS011;43236;47.208;7.518;2023-12-20T03:04:07;14.40;;;7.47;;
38940;SDS011;43236;47.208;7.518;2023-12-20T03:06:54;12.02;;;7.43;;
38940;SDS011;43236;47.208;7.518;2023-12-20T03:09:41;13.93;;;8.52;;
38940;SDS011;43236;47.208;7.518;2023-12-20T03:12:30;14.10;;;8.13;;
38940;SDS011;43236;47.208;7.518;2023-12-20T03:15:17;12.63;;;8.55;;
38940;SDS011;43236;47.208;7.518;2023-12-20T03:18:04;12.98;;;8.30;;
38940;SDS011;43236;47.208;7.518;2023-12-20T03:20:51;12.25;;;7.85;;
38940;SDS011;43236;47.208;7.518;2023-12-20T03:23:38;16.25;;;8.60;;
38940;SDS011;43236;47.208;7.518;2023-12-20T03:26:25;13.13;;;8.65;;
38940;SDS011;43236;47.208;7.518;2023-12-20T03:29:13;20.33;;;9.40;;
38940;SDS011;43236;47.208;7.518;2023-12-20T03:32:00;12.65;;;9.25;;
38940;SDS011;43236;47.208;7.518;2023-12-20T03:34:47;10.15;;;7.72;;
38940;SDS011;43236;47.208;7.518;2023-12-20T03:37:34;14.27;;;8.63;;
38940;SDS011;43236;47.208;7.518;2023-12-20T03:40:21;11.57;;;7.05;;
38940;SDS011;43236;47.208;7.518;2023-12-20T03:43:08;17.42;;;9.93;;
38940;SDS011;43236;47.208;7.518;2023-12-20T03:45:57;14.45;;;8.45;;
38940;SDS011;43236;47.208;7.518;2023-12-20T03:48:45;16.50;;;8.70;;
38940;SDS011;43236;47.208;7.518;2023-12-20T03:51:32;12.63;;;8.30;;
38940;SDS011;43236;47.208;7.518;2023-12-20T03:54:19;8.18;;;6.90;;
38940;SDS011;43236;47.208;7.518;2023-12-20T03:57:06;12.48;;;7.28;;
38940;SDS011;43236;47.208;7.518;2023-12-20T03:59:53;13.45;;;8.63;;
38940;SDS011;43236;47.208;7.518;2023-12-20T04:02:41;18.02;;;9.40;;
38940;SDS011;43236;47.208;7.518;2023-12-20T04:05:29;11.35;;;7.60;;
38940;SDS011;43236;47.208;7.518;2023-12-20T04:08:16;12.45;;;7.97;;
38940;SDS011;43236;47.208;7.518;2023-12-20T04:11:03;13.57;;;8.77;;
38940;SDS011;43236;47.208;7.518;2023-12-20T04:13:50;12.40;;;6.63;;
38940;SDS011;43236;47.208;7.518;2023-12-20T04:16:37;10.73;;;7.93;;
38940;SDS011;43236;47.208;7.518;2023-12-20T04:19:25;18.15;;;7.60;;
38940;SDS011;43236;47.208;7.518;2023-12-20T04:22:12;13.18;;;7.75;;
38940;SDS011;43236;47.208;7.518;2023-12-20T04:24:59;11.75;;;7.95;;
38940;SDS011;43236;47.208;7.518;2023-12-20T04:27:47;12.90;;;8.90;;
38940;SDS011;43236;47.208;7.518;2023-12-20T04:30:34;14.38;;;9.07;;
38940;SDS011;43236;47.208;7.518;2023-12-20T04:33:21;12.43;;;8.43;;
38940;SDS011;43236;47.208;7.518;2023-12-20T04:36:10;16.65;;;8.32;;
38940;SDS011;43236;47.208;7.518;2023-12-20T04:38:57;12.25;;;8.60;;
38940;SDS011;43236;47.208;7.518;2023-12-20T04:41:45;13.23;;;8.35;;
38940;SDS011;43236;47.208;7.518;2023-12-20T04:44:33;14.63;;;8.52;;
38940;SDS011;43236;47.208;7.518;2023-12-20T04:47:20;12.88;;;8.48;;
38940;SDS011;43236;47.208;7.518;2023-12-20T04:50:07;10.55;;;7.25;;
38940;SDS011;43236;47.208;7.518;2023-12-20T04:52:56;14.63;;;8.75;;
38940;SDS011;43236;47.208;7.518;2023-12-20T04:55:43;14.35;;;9.32;;
38940;SDS011;43236;47.208;7.518;2023-12-20T04:58:30;11.82;;;7.55;;
38940;SDS011;43236;47.208;7.518;2023-12-20T05:01:17;13.52;;;8.10;;
38940;SDS011;43236;47.208;7.518;2023-12-20T05:04:04;14.05;;;8.27;;
38940;SDS011;43236;47.208;7.518;2023-12-20T05:06:51;15.80;;;8.57;;
38940;SDS011;43236;47.208;7.518;2023-12-20T05:09:40;12.98;;;9.25;;
38940;SDS011;43236;47.208;7.518;2023-12-20T05:12:27;11.77;;;8.40;;
38940;SDS011;43236;47.208;7.518;2023-12-20T05:15:14;11.75;;;7.85;;
38940;SDS011;43236;47.208;7.518;2023-12-20T05:18:01;12.88;;;8.43;;
38940;SDS011;43236;47.208;7.518;2023-12-20T05:20:48;14.02;;;9.27;;
38940;SDS011;43236;47.208;7.518;2023-12-20T05:23:36;9.73;;;6.57;;
38940;SDS011;43236;47.208;7.518;2023-12-20T05:26:25;10.68;;;7.45;;
38940;SDS011;43236;47.208;7.518;2023-12-20T05:29:12;15.23;;;9.35;;
38940;SDS011;43236;47.208;7.518;2023-12-20T05:31:59;11.63;;;7.00;;
38940;SDS011;43236;47.208;7.518;2023-12-20T05:34:46;11.20;;;7.30;;
38940;SDS011;43236;47.208;7.518;2023-12-20T05:37:33;14.13;;;7.88;;
38940;SDS011;43236;47.208;7.518;2023-12-20T05:40:20;10.80;;;6.57;;
38940;SDS011;43236;47.208;7.518;2023-12-20T05:43:08;9.93;;;7.28;;
38940;SDS011;43236;47.208;7.518;2023-12-20T05:45:55;10.25;;;6.43;;
38940;SDS011;43236;47.208;7.518;2023-12-20T05:48:43;8.90;;;6.50;;
38940;SDS011;43236;47.208;7.518;2023-12-20T05:51:30;11.30;;;7.47;;
38940;SDS011;43236;47.208;7.518;2023-12-20T05:54:17;10.77;;;8.30;;
38940;SDS011;43236;47.208;7.518;2023-12-20T05:57:04;10.77;;;7.90;;
38940;SDS011;43236;47.208;7.518;2023-12-20T05:59:53;13.13;;;7.70;;
38940;SDS011;43236;47.208;7.518;2023-12-20T06:02:40;50.40;;;22.63;;
38940;SDS011;43236;47.208;7.518;2023-12-20T06:05:27;28.88;;;16.95;;
38940;SDS011;43236;47.208;7.518;2023-12-20T06:08:14;20.30;;;12.88;;
38940;SDS011;43236;47.208;7.518;2023-12-20T06:11:01;14.75;;;9.70;;
38940;SDS011;43236;47.208;7.518;2023-12-20T06:13:48;11.23;;;8.02;;
38940;SDS011;43236;47.208;7.518;2023-12-20T06:16:38;12.57;;;7.57;;
38940;SDS011;43236;47.208;7.518;2023-12-20T06:19:25;13.95;;;8.35;;
38940;SDS011;43236;47.208;7.518;2023-12-20T06:22:12;11.23;;;8.13;;
38940;SDS011;43236;47.208;7.518;2023-12-20T06:24:59;10.00;;;6.97;;
38940;SDS011;43236;47.208;7.518;2023-12-20T06:27:46;13.40;;;7.03;;
38940;SDS011;43236;47.208;7.518;2023-12-20T06:30:33;12.98;;;7.40;;
38940;SDS011;43236;47.208;7.518;2023-12-20T06:33:21;9.98;;;6.30;;
38940;SDS011;43236;47.208;7.518;2023-12-20T06:36:10;9.63;;;7.15;;
38940;SDS011;43236;47.208;7.518;2023-12-20T06:38:58;13.02;;;7.40;;
38940;SDS011;43236;47.208;7.518;2023-12-20T06:41:45;8.15;;;6.88;;
38940;SDS011;43236;47.208;7.518;2023-12-20T06:44:32;10.80;;;6.10;;
38940;SDS011;43236;47.208;7.518;2023-12-20T06:47:19;10.93;;;7.85;;
38940;SDS011;43236;47.208;7.518;2023-12-20T06:50:08;10.75;;;8.15;;
38940;SDS011;43236;47.208;7.518;2023-12-20T06:52:55;11.90;;;8.20;;
38940;SDS011;43236;47.208;7.518;2023-12-20T06:55:42;12.65;;;6.82;;
38940;SDS011;43236;47.208;7.518;2023-12-20T06:58:29;10.55;;;6.85;;
38940;SDS011;43236;47.208;7.518;2023-12-20T07:01:16;9.05;;;6.85;;
38940;SDS011;43236;47.208;7.518;2023-12-20T07:04:03;8.88;;;5.82;;
38940;SDS011;43236;47.208;7.518;2023-12-20T07:06:51;10.68;;;7.00;;
38940;SDS011;43236;47.208;7.518;2023-12-20T07:09:42;6.97;;;6.00;;
38940;SDS011;43236;47.208;7.518;2023-12-20T07:12:29;8.68;;;6.50;;
38940;SDS011;43236;47.208;7.518;2023-12-20T07:15:16;9.55;;;6.63;;
38940;SDS011;43236;47.208;7.518;2023-12-20T07:18:04;9.07;;;6.55;;
38940;SDS011;43236;47.208;7.518;2023-12-20T07:20:51;11.18;;;7.35;;
38940;SDS011;43236;47.208;7.518;2023-12-20T07:23:42;12.30;;;8.07;;
38940;SDS011;43236;47.208;7.518;2023-12-20T07:26:29;13.40;;;7.28;;
38940;SDS011;43236;47.208;7.518;2023-12-20T07:29:16;13.82;;;7.65;;
38940;SDS011;43236;47.208;7.518;2023-12-20T07:32:03;7.47;;;6.63;;
38940;SDS011;43236;47.208;7.518;2023-12-20T07:34:51;11.05;;;7.28;;
38940;SDS011;43236;47.208;7.518;2023-12-20T07:37:39;14.20;;;7.90;;
38940;SDS011;43236;47.208;7.518;2023-12-20T07:40:27;11.05;;;7.88;;
38940;SDS011;43236;47.208;7.518;2023-12-20T07:43:14;9.52;;;6.97;;
38940;SDS011;43236;47.208;7.518;2023-12-20T07:46:03;10.95;;;7.40;;
38940;SDS011;43236;47.208;7.518;2023-12-20T07:48:51;8.93;;;6.75;;
38940;SDS011;43236;47.208;7.518;2023-12-20T07:51:38;13.00;;;7.72;;
38940;SDS011;43236;47.208;7.518;2023-12-20T07:54:25;13.73;;;7.72;;
38940;SDS011;43236;47.208;7.518;2023-12-20T07:57:13;11.65;;;8.75;;
38940;SDS011;43236;47.208;7.518;2023-12-20T08:00:00;13.20;;;9.38;;
38940;SDS011;43236;47.208;7.518;2023-12-20T08:02:49;14.02;;;9.00;;
38940;SDS011;43236;47.208;7.518;2023-12-20T08:05:36;10.48;;;7.65;;
38940;SDS011;43236;47.208;7.518;2023-12-20T08:08:25;9.45;;;8.18;;
38940;SDS011;43236;47.208;7.518;2023-12-20T08:11:12;11.48;;;8.93;;
38940;SDS011;43236;47.208;7.518;2023-12-20T08:14:00;10.85;;;8.02;;
38940;SDS011;43236;47.208;7.518;2023-12-20T08:16:48;10.65;;;7.18;;
38940;SDS011;43236;47.208;7.518;2023-12-20T08:19:35;10.45;;;8.52;;
38940;SDS011;43236;47.208;7.518;2023-12-20T08:22:22;10.70;;;7.15;;
38940;SDS011;43236;47.208;7.518;2023-12-20T08:25:09;9.73;;;6.80;;
38940;SDS011;43236;47.208;7.518;2023-12-20T08:27:55;11.68;;;7.93;;
38940;SDS011;43236;47.208;7.518;2023-12-20T08:30:44;9.82;;;7.10;;
38940;SDS011;43236;47.208;7.518;2023-12-20T08:33:31;10.32;;;7.43;;
38940;SDS011;43236;47.208;7.518;2023-12-20T08:36:18;11.32;;;8.73;;
38940;SDS011;43236;47.208;7.518;2023-12-20T08:39:06;11.18;;;7.57;;
38940;SDS011;43236;47.208;7.518;2023-12-20T08:41:53;10.13;;;7.50;;
38940;SDS011;43236;47.208;7.518;2023-12-20T08:44:40;17.52;;;9.57;;
38940;SDS011;43236;47.208;7.518;2023-12-20T08:47:29;11.40;;;8.55;;
38940;SDS011;43236;47.208;7.518;2023-12-20T08:50:16;11.25;;;8.75;;
38940;SDS011;43236;47.208;7.518;2023-12-20T08:53:03;11.30;;;8.68;;
38940;SDS011;43236;47.208;7.518;2023-12-20T08:55:50;13.55;;;7.90;;
38940;SDS011;43236;47.208;7.518;2023-12-20T08:58:37;12.40;;;9.70;;
38940;SDS011;43236;47.208;7.518;2023-12-20T09:01:24;11.20;;;7.10;;
38940;SDS011;43236;47.208;7.518;2023-12-20T09:04:13;11.52;;;7.28;;
38940;SDS011;43236;47.208;7.518;2023-12-20T09:07:00;9.30;;;6.47;;
38940;SDS011;43236;47.208;7.518;2023-12-20T09:09:47;12.13;;;7.43;;
38940;SDS011;43236;47.208;7.518;2023-12-20T09:12:34;11.65;;;6.15;;
38940;SDS011;43236;47.208;7.518;2023-12-20T09:15:23;11.07;;;7.88;;
38940;SDS011;43236;47.208;7.518;2023-12-20T09:18:10;10.63;;;7.93;;
38940;SDS011;43236;47.208;7.518;2023-12-20T09:20:59;9.60;;;6.63;;
38940;SDS011;43236;47.208;7.518;2023-12-20T09:23:46;12.77;;;9.10;;
38940;SDS011;43236;47.208;7.518;2023-12-20T09:26:33;15.77;;;8.50;;
38940;SDS011;43236;47.208;7.518;2023-12-20T09:29:20;9.23;;;5.60;;
38940;SDS011;43236;47.208;7.518;2023-12-20T09:32:07;12.05;;;6.32;;
38940;SDS011;43236;47.208;7.518;2023-12-20T09:34:54;11.38;;;6.45;;
38940;SDS011;43236;47.208;7.518;2023-12-20T09:37:42;11.13;;;7.13;;
38940;SDS011;43236;47.208;7.518;2023-12-20T09:40:30;9.95;;;6.82;;
38940;SDS011;43236;47.208;7.518;2023-12-20T09:43:19;8.60;;;7.38;;
38940;SDS011;43236;47.208;7.518;2023-12-20T09:46:10;7.53;;;6.15;;
38940;SDS011;43236;47.208;7.518;2023-12-20T09:49:00;9.75;;;6.57;;
38940;SDS011;43236;47.208;7.518;2023-12-20T09:51:47;13.15;;;6.47;;
38940;SDS011;43236;47.208;7.518;2023-12-20T09:54:38;8.82;;;6.00;;
38940;SDS011;43236;47.208;7.518;2023-12-20T09:57:26;11.95;;;6.40;;
38940;SDS011;43236;47.208;7.518;2023-12-20T10:00:13;8.35;;;5.45;;
38940;SDS011;43236;47.208;7.518;2023-12-20T10:03:02;8.27;;;5.03;;
38940;SDS011;43236;47.208;7.518;2023-12-20T10:05:52;6.80;;;4.18;;
38940;SDS011;43236;47.208;7.518;2023-12-20T10:08:42;7.80;;;5.45;;
38940;SDS011;43236;47.208;7.518;2023-12-20T10:11:31;8.07;;;5.78;;
38940;SDS011;43236;47.208;7.518;2023-12-20T10:14:18;6.53;;;4.15;;
38940;SDS011;43236;47.208;7.518;2023-12-20T10:17:05;8.05;;;4.40;;
38940;SDS011;43236;47.208;7.518;2023-12-20T10:19:53;4.18;;;3.50;;
38940;SDS011;43236;47.208;7.518;2023-12-20T10:22:40;4.43;;;3.83;;
38940;SDS011;43236;47.208;7.518;2023-12-20T10:25:27;7.00;;;3.28;;
38940;SDS011;43236;47.208;7.518;2023-12-20T10:28:15;5.28;;;4.32;;
38940;SDS011;43236;47.208;7.518;2023-12-20T10:31:04;4.90;;;3.30;;
38940;SDS011;43236;47.208;7.518;2023-12-20T10:33:51;5.60;;;3.20;;
38940;SDS011;43236;47.208;7.518;2023-12-20T10:36:38;4.97;;;4.13;;
38940;SDS011;43236;47.208;7.518;2023-12-20T10:39:25;5.97;;;3.63;;
38940;SDS011;43236;47.208;7.518;2023-12-20T10:42:13;5.68;;;3.13;;
38940;SDS011;43236;47.208;7.518;2023-12-20T10:45:02;3.65;;;2.92;;
38940;SDS011;43236;47.208;7.518;2023-12-20T10:47:50;2.03;;;1.55;;
38940;SDS011;43236;47.208;7.518;2023-12-20T10:50:37;1.88;;;1.35;;
38940;SDS011;43236;47.208;7.518;2023-12-20T10:53:25;1.63;;;1.40;;
38940;SDS011;43236;47.208;7.518;2023-12-20T10:56:12;3.45;;;2.10;;
38940;SDS011;43236;47.208;7.518;2023-12-20T10:59:03;3.58;;;1.83;;
38940;SDS011;43236;47.208;7.518;2023-12-20T11:01:53;2.95;;;1.88;;
38940;SDS011;43236;47.208;7.518;2023-12-20T11:04:44;4.53;;;1.83;;
38940;SDS011;43236;47.208;7.518;2023-12-20T11:07:38;2.50;;;2.00;;
38940;SDS011;43236;47.208;7.518;2023-12-20T11:10:30;2.90;;;1.58;;
38940;SDS011;43236;47.208;7.518;2023-12-20T11:13:26;1.98;;;1.52;;
38940;SDS011;43236;47.208;7.518;2023-12-20T11:16:17;2.97;;;2.13;;
38940;SDS011;43236;47.208;7.518;2023-12-20T11:19:06;2.97;;;1.88;;
38940;SDS011;43236;47.208;7.518;2023-12-20T11:21:53;2.65;;;1.85;;
38940;SDS011;43236;47.208;7.518;2023-12-20T11:24:43;2.13;;;1.27;;
38940;SDS011;43236;47.208;7.518;2023-12-20T11:27:31;2.17;;;1.35;;
38940;SDS011;43236;47.208;7.518;2023-12-20T11:30:18;2.28;;;1.90;;
38940;SDS011;43236;47.208;7.518;2023-12-20T11:33:07;1.48;;;1.00;;
38940;SDS011;43236;47.208;7.518;2023-12-20T11:35:56;0.73;;;0.70;;
38940;SDS011;43236;47.208;7.518;2023-12-20T11:41:36;0.30;;;0.30;;
38940;SDS011;43236;47.208;7.518;2023-12-20T11:44:25;0.40;;;0.40;;
38940;SDS011;43236;47.208;7.518;2023-12-20T11:47:12;0.35;;;0.35;;
38940;SDS011;43236;47.208;7.518;2023-12-20T11:50:01;0.45;;;0.45;;
38940;SDS011;43236;47.208;7.518;2023-12-20T11:52:51;0.35;;;0.35;;
38940;SDS011;43236;47.208;7.518;2023-12-20T11:55:39;0.50;;;0.50;;
38940;SDS011;43236;47.208;7.518;2023-12-20T11:58:26;0.50;;;0.50;;
38940;SDS011;43236;47.208;7.518;2023-12-20T12:01:13;0.40;;;0.40;;
38940;SDS011;43236;47.208;7.518;2023-12-20T12:04:03;0.40;;;0.40;;
38940;SDS011;43236;47.208;7.518;2023-12-20T12:06:50;0.40;;;0.40;;
38940;SDS011;43236;47.208;7.518;2023-12-20T12:09:39;0.40;;;0.40;;
38940;SDS011;43236;47.208;7.518;2023-12-20T12:12:26;0.70;;;0.70;;
38940;SDS011;43236;47.208;7.518;2023-12-20T12:15:14;0.73;;;0.73;;
38940;SDS011;43236;47.208;7.518;2023-12-20T12:18:02;0.40;;;0.40;;
38940;SDS011;43236;47.208;7.518;2023-12-20T12:20:49;0.52;;;0.52;;
38940;SDS011;43236;47.208;7.518;2023-12-20T12:23:36;0.55;;;0.55;;
38940;SDS011;43236;47.208;7.518;2023-12-20T12:26:26;0.43;;;0.43;;
38940;SDS011;43236;47.208;7.518;2023-12-20T12:29:17;0.40;;;0.40;;
38940;SDS011;43236;47.208;7.518;2023-12-20T12:32:04;0.95;;;0.70;;
38940;SDS011;43236;47.208;7.518;2023-12-20T12:34:52;0.50;;;0.50;;
38940;SDS011;43236;47.208;7.518;2023-12-20T12:37:40;1.90;;;0.73;;
38940;SDS011;43236;47.208;7.518;2023-12-20T12:40:27;0.70;;;0.70;;
38940;SDS011;43236;47.208;7.518;2023-12-20T12:43:16;0.80;;;0.63;;
38940;SDS011;43236;47.208;7.518;2023-12-20T12:46:03;0.45;;;0.45;;
38940;SDS011;43236;47.208;7.518;2023-12-20T12:48:50;0.63;;;0.63;;
38940;SDS011;43236;47.208;7.518;2023-12-20T12:51:37;0.60;;;0.60;;
38940;SDS011;43236;47.208;7.518;2023-12-20T12:54:24;0.73;;;0.73;;
38940;SDS011;43236;47.208;7.518;2023-12-20T12:57:11;0.70;;;0.70;;
38940;SDS011;43236;47.208;7.518;2023-12-20T13:00:01;0.90;;;0.80;;
38940;SDS011;43236;47.208;7.518;2023-12-20T13:02:50;0.50;;;0.50;;
38940;SDS011;43236;47.208;7.518;2023-12-20T13:05:37;0.98;;;0.80;;
38940;SDS011;43236;47.208;7.518;2023-12-20T13:08:24;0.65;;;0.65;;
38940;SDS011;43236;47.208;7.518;2023-12-20T13:11:11;0.70;;;0.70;;
38940;SDS011;43236;47.208;7.518;2023-12-20T13:13:58;0.85;;;0.73;;
38940;SDS011;43236;47.208;7.518;2023-12-20T13:16:46;0.85;;;0.85;;
38940;SDS011;43236;47.208;7.518;2023-12-20T13:19:33;1.05;;;0.95;;
38940;SDS011;43236;47.208;7.518;2023-12-20T13:22:20;0.68;;;0.68;;
38940;SDS011;43236;47.208;7.518;2023-12-20T13:25:08;0.70;;;0.70;;
38940;SDS011;43236;47.208;7.518;2023-12-20T13:27:55;1.08;;;0.93;;
38940;SDS011;43236;47.208;7.518;2023-12-20T13:30:42;0.55;;;0.55;;
38940;SDS011;43236;47.208;7.518;2023-12-20T13:33:30;0.70;;;0.68;;
38940;SDS011;43236;47.208;7.518;2023-12-20T13:36:17;3.85;;;1.17;;
38940;SDS011;43236;47.208;7.518;2023-12-20T13:39:04;1.27;;;1.17;;
38940;SDS011;43236;47.208;7.518;2023-12-20T13:41:52;1.45;;;1.10;;
38940;SDS011;43236;47.208;7.518;2023-12-20T13:44:39;2.03;;;0.80;;
38940;SDS011;43236;47.208;7.518;2023-12-20T13:47:26;1.90;;;0.70;;
38940;SDS011;43236;47.208;7.518;2023-12-20T13:50:15;1.45;;;1.23;;
38940;SDS011;43236;47.208;7.518;2023-12-20T13:53:03;1.63;;;1.08;;
38940;SDS011;43236;47.208;7.518;2023-12-20T13:55:50;0.98;;;0.98;;
38940;SDS011;43236;47.208;7.518;2023-12-20T13:58:37;0.85;;;0.85;;
38940;SDS011;43236;47.208;7.518;2023-12-20T14:01:25;1.02;;;1.02;;
38940;SDS011;43236;47.208;7.518;2023-12-20T14:04:12;0.90;;;0.90;;
38940;SDS011;43236;47.208;7.518;2023-12-20T14:07:00;0.70;;;0.70;;
38940;SDS011;43236;47.208;7.518;2023-12-20T14:09:48;0.85;;;0.75;;
38940;SDS011;43236;47.208;7.518;2023-12-20T14:12:35;1.52;;;0.75;;
38940;SDS011;43236;47.208;7.518;2023-12-20T14:15:23;1.65;;;1.23;;
38940;SDS011;43236;47.208;7.518;2023-12-20T14:18:10;1.52;;;0.95;;
38940;SDS011;43236;47.208;7.518;2023-12-20T14:21:00;0.68;;;0.63;;
38940;SDS011;43236;47.208;7.518;2023-12-20T14:23:48;2.53;;;0.90;;
38940;SDS011;43236;47.208;7.518;2023-12-20T14:26:35;0.85;;;0.75;;
38940;SDS011;43236;47.208;7.518;2023-12-20T14:29:22;0.68;;;0.68;;
38940;SDS011;43236;47.208;7.518;2023-12-20T14:32:09;1.70;;;0.70;;
38940;SDS011;43236;47.208;7.518;2023-12-20T14:34:56;2.72;;;1.98;;
38940;SDS011;43236;47.208;7.518;2023-12-20T14:37:43;1.05;;;0.98;;
38940;SDS011;43236;47.208;7.518;2023-12-20T14:40:32;2.13;;;1.02;;
38940;SDS011;43236;47.208;7.518;2023-12-20T14:43:19;0.85;;;0.85;;
38940;SDS011;43236;47.208;7.518;2023-12-20T14:46:07;0.80;;;0.80;;
38940;SDS011;43236;47.208;7.518;2023-12-20T14:48:54;1.42;;;1.33;;
38940;SDS011;43236;47.208;7.518;2023-12-20T14:51:43;0.93;;;0.80;;
38940;SDS011;43236;47.208;7.518;2023-12-20T14:54:32;1.15;;;1.05;;
38940;SDS011;43236;47.208;7.518;2023-12-20T14:57:21;1.40;;;0.77;;
38940;SDS011;43236;47.208;7.518;2023-12-20T15:00:08;0.90;;;0.90;;
38940;SDS011;43236;47.208;7.518;2023-12-20T15:03:01;0.70;;;0.70;;
38940;SDS011;43236;47.208;7.518;2023-12-20T15:05:50;2.55;;;1.27;;
38940;SDS011;43236;47.208;7.518;2023-12-20T15:08:37;3.05;;;1.42;;
38940;SDS011;43236;47.208;7.518;2023-12-20T15:11:24;0.70;;;0.70;;
38940;SDS011;43236;47.208;7.518;2023-12-20T15:14:12;4.53;;;1.17;;
38940;SDS011;43236;47.208;7.518;2023-12-20T15:17:04;1.25;;;1.13;;
38940;SDS011;43236;47.208;7.518;2023-12-20T15:19:51;0.70;;;0.70;;
38940;SDS011;43236;47.208;7.518;2023-12-20T15:22:38;0.60;;;0.60;;
38940;SDS011;43236;47.208;7.518;2023-12-20T15:25:26;4.75;;;1.02;;
38940;SDS011;43236;47.208;7.518;2023-12-20T15:28:13;0.68;;;0.68;;
38940;SDS011;43236;47.208;7.518;2023-12-20T15:31:02;1.65;;;1.00;;
38940;SDS011;43236;47.208;7.518;2023-12-20T15:33:51;1.23;;;1.10;;
38940;SDS011;43236;47.208;7.518;2023-12-20T15:36:39;1.65;;;0.90;;
38940;SDS011;43236;47.208;7.518;2023-12-20T15:39:26;1.15;;;1.13;;
38940;SDS011;43236;47.208;7.518;2023-12-20T15:42:13;1.77;;;1.27;;
38940;SDS011;43236;47.208;7.518;2023-12-20T15:45:00;1.10;;;1.00;;
38940;SDS011;43236;47.208;7.518;2023-12-20T15:47:49;0.98;;;0.90;;
38940;SDS011;43236;47.208;7.518;2023-12-20T15:50:36;1.48;;;0.82;;
38940;SDS011;43236;47.208;7.518;2023-12-20T15:53:23;1.05;;;0.60;;
38940;SDS011;43236;47.208;7.518;2023-12-20T15:56:10;0.82;;;0.82;;
38940;SDS011;43236;47.208;7.518;2023-12-20T15:58:57;3.25;;;1.00;;
38940;SDS011;43236;47.208;7.518;2023-12-20T16:01:45;2.30;;;1.42;;
38940;SDS011;43236;47.208;7.518;2023-12-20T16:04:33;1.50;;;0.95;;
38940;SDS011;43236;47.208;7.518;2023-12-20T16:07:21;0.80;;;0.80;;
38940;SDS011;43236;47.208;7.518;2023-12-20T16:10:08;1.17;;;0.90;;
38940;SDS011;43236;47.208;7.518;2023-12-20T16:12:56;2.90;;;1.00;;
38940;SDS011;43236;47.208;7.518;2023-12-20T16:15:43;1.15;;;1.00;;
38940;SDS011;43236;47.208;7.518;2023-12-20T16:18:30;1.52;;;1.02;;
38940;SDS011;43236;47.208;7.518;2023-12-20T16:21:19;2.80;;;1.60;;
38940;SDS011;43236;47.208;7.518;2023-12-20T16:24:06;5.35;;;1.67;;
38940;SDS011;43236;47.208;7.518;2023-12-20T16:26:54;1.35;;;1.25;;
38940;SDS011;43236;47.208;7.518;2023-12-20T16:29:41;0.90;;;0.90;;
38940;SDS011;43236;47.208;7.518;2023-12-20T16:32:29;2.40;;;0.80;;
38940;SDS011;43236;47.208;7.518;2023-12-20T16:35:16;1.48;;;1.20;;
38940;SDS011;43236;47.208;7.518;2023-12-20T16:38:05;2.45;;;1.55;;
38940;SDS011;43236;47.208;7.518;2023-12-20T16:40:52;3.70;;;1.48;;
38940;SDS011;43236;47.208;7.518;2023-12-20T16:43:40;1.48;;;1.30;;
38940;SDS011;43236;47.208;7.518;2023-12-20T16:46:27;1.52;;;1.42;;